Terminal Aerodrome Forecast
Issued by NWS

Home | Current Version | Previous Version | Text Only | Print | Product List | Glossary On
Versions: 1 2 3 4 5 6 7 8 9 10 11 12 13 14 15 16 17
000
FTUS45 KSLC 301120
TAFBCE
TAF
KBCE 301120Z 3012/0112 15005KT P6SM SCT025 SCT060
     FM301800 15006KT P6SM VCSH FEW050 BKN080
     FM302000 15007KT P6SM -SHRA VCTS SCT020CB BKN050
     FM010200 29007KT P6SM FEW050 SCT100=

USA.gov is the U.S. government's official web portal to all federal, state and local government web resources and services.